sensor_id;sensor_type;location;lat;lon;timestamp;pressure;altitude;pressure_sealevel;temperature;humidity
6216;BME280;3141;49.234;9.326;2023-01-29T00:00:24;100859.06;;;4.09;55.64
6216;BME280;3141;49.234;9.326;2023-01-29T00:01:06;100862.25;;;4.14;54.82
6216;BME280;3141;49.234;9.326;2023-01-29T00:01:49;100862.13;;;4.17;54.62
6216;BME280;3141;49.234;9.326;2023-01-29T00:02:32;100861.84;;;4.22;54.65
6216;BME280;3141;49.234;9.326;2023-01-29T00:03:14;100862.13;;;4.17;55.30
6216;BME280;3141;49.234;9.326;2023-01-29T00:03:57;100865.31;;;4.22;54.66
6216;BME280;3141;49.234;9.326;2023-01-29T00:04:39;100857.47;;;4.22;54.93
6216;BME280;3141;49.234;9.326;2023-01-29T00:05:21;100862.88;;;4.19;54.65
6216;BME280;3141;49.234;9.326;2023-01-29T00:06:05;100859.13;;;4.23;54.68
6216;BME280;3141;49.234;9.326;2023-01-29T00:06:48;100858.38;;;4.21;54.44
6216;BME280;3141;49.234;9.326;2023-01-29T00:07:31;100852.22;;;4.22;54.67
6216;BME280;3141;49.234;9.326;2023-01-29T00:08:13;100860.06;;;4.22;54.08
6216;BME280;3141;49.234;9.326;2023-01-29T00:08:56;100859.81;;;4.11;54.01
6216;BME280;3141;49.234;9.326;2023-01-29T00:09:38;100858.16;;;4.10;54.33
6216;BME280;3141;49.234;9.326;2023-01-29T00:10:21;100859.16;;;4.08;55.01
6216;BME280;3141;49.234;9.326;2023-01-29T00:11:06;100857.97;;;4.13;54.54
6216;BME280;3141;49.234;9.326;2023-01-29T00:11:48;100859.31;;;4.20;54.90
6216;BME280;3141;49.234;9.326;2023-01-29T00:12:31;100859.13;;;4.23;54.57
6216;BME280;3141;49.234;9.326;2023-01-29T00:13:13;100862.19;;;4.16;54.16
6216;BME280;3141;49.234;9.326;2023-01-29T00:13:55;100865.53;;;4.18;54.96
6216;BME280;3141;49.234;9.326;2023-01-29T00:14:37;100858.91;;;4.12;54.84
6216;BME280;3141;49.234;9.326;2023-01-29T00:15:20;100857.47;;;4.07;54.87
6216;BME280;3141;49.234;9.326;2023-01-29T00:16:03;100860.69;;;4.12;54.84
6216;BME280;3141;49.234;9.326;2023-01-29T00:16:45;100861.34;;;4.15;54.74
6216;BME280;3141;49.234;9.326;2023-01-29T00:17:27;100858.97;;;4.11;54.77
6216;BME280;3141;49.234;9.326;2023-01-29T00:18:10;100860.59;;;4.13;54.03
6216;BME280;3141;49.234;9.326;2023-01-29T00:18:52;100861.78;;;4.08;54.94
6216;BME280;3141;49.234;9.326;2023-01-29T00:19:34;100868.03;;;4.05;53.94
6216;BME280;3141;49.234;9.326;2023-01-29T00:20:17;100868.75;;;4.07;54.75
6216;BME280;3141;49.234;9.326;2023-01-29T00:20:59;100859.41;;;4.03;54.65
6216;BME280;3141;49.234;9.326;2023-01-29T00:21:42;100859.59;;;4.00;54.77
6216;BME280;3141;49.234;9.326;2023-01-29T00:22:24;100861.78;;;3.92;54.75
6216;BME280;3141;49.234;9.326;2023-01-29T00:23:07;100865.34;;;3.91;54.63
6216;BME280;3141;49.234;9.326;2023-01-29T00:23:49;100863.56;;;3.92;55.12
6216;BME280;3141;49.234;9.326;2023-01-29T00:24:32;100869.22;;;4.00;54.83
6216;BME280;3141;49.234;9.326;2023-01-29T00:25:14;100870.97;;;3.99;55.14
6216;BME280;3141;49.234;9.326;2023-01-29T00:25:58;100869.03;;;4.03;55.06
6216;BME280;3141;49.234;9.326;2023-01-29T00:26:41;100861.19;;;4.03;54.98
6216;BME280;3141;49.234;9.326;2023-01-29T00:27:24;100867.59;;;3.97;55.37
6216;BME280;3141;49.234;9.326;2023-01-29T00:28:06;100870.22;;;3.97;55.05
6216;BME280;3141;49.234;9.326;2023-01-29T00:28:48;100864.22;;;3.95;55.40
6216;BME280;3141;49.234;9.326;2023-01-29T00:29:31;100867.19;;;4.05;55.15
6216;BME280;3141;49.234;9.326;2023-01-29T00:30:13;100874.94;;;4.06;55.34
6216;BME280;3141;49.234;9.326;2023-01-29T00:31:18;100868.84;;;4.06;55.05
6216;BME280;3141;49.234;9.326;2023-01-29T00:32:00;100867.44;;;3.85;55.12
6216;BME280;3141;49.234;9.326;2023-01-29T00:32:43;100871.66;;;3.87;55.29
6216;BME280;3141;49.234;9.326;2023-01-29T00:33:27;100864.22;;;3.95;55.09
6216;BME280;3141;49.234;9.326;2023-01-29T00:34:10;100860.59;;;3.98;55.52
6216;BME280;3141;49.234;9.326;2023-01-29T00:34:52;100864.75;;;4.02;55.44
6216;BME280;3141;49.234;9.326;2023-01-29T00:35:38;100869.13;;;4.01;55.23
6216;BME280;3141;49.234;9.326;2023-01-29T00:36:21;100866.50;;;4.01;55.71
6216;BME280;3141;49.234;9.326;2023-01-29T00:37:04;100873.41;;;4.02;55.85
6216;BME280;3141;49.234;9.326;2023-01-29T00:37:50;100868.75;;;4.07;55.57
6216;BME280;3141;49.234;9.326;2023-01-29T00:38:33;100871.31;;;4.09;55.08
6216;BME280;3141;49.234;9.326;2023-01-29T00:39:15;100873.84;;;4.10;55.06
6216;BME280;3141;49.234;9.326;2023-01-29T00:39:58;100869.44;;;4.11;55.61
6216;BME280;3141;49.234;9.326;2023-01-29T00:40:40;100872.66;;;4.16;55.47
6216;BME280;3141;49.234;9.326;2023-01-29T00:41:41;100877.97;;;4.14;55.16
6216;BME280;3141;49.234;9.326;2023-01-29T00:42:45;100868.16;;;4.18;55.37
6216;BME280;3141;49.234;9.326;2023-01-29T00:43:57;100875.97;;;4.19;55.56
6216;BME280;3141;49.234;9.326;2023-01-29T00:44:58;100875.19;;;4.17;54.95
6216;BME280;3141;49.234;9.326;2023-01-29T00:45:40;100874.09;;;4.06;54.72
6216;BME280;3141;49.234;9.326;2023-01-29T00:46:22;100870.09;;;4.14;55.22
6216;BME280;3141;49.234;9.326;2023-01-29T00:47:05;100872.41;;;4.20;55.05
6216;BME280;3141;49.234;9.326;2023-01-29T00:48:10;100866.13;;;4.23;55.39
6216;BME280;3141;49.234;9.326;2023-01-29T00:48:52;100868.75;;;4.23;55.20
6216;BME280;3141;49.234;9.326;2023-01-29T00:49:35;100861.84;;;4.22;55.31
6216;BME280;3141;49.234;9.326;2023-01-29T00:50:17;100870.78;;;4.18;55.20
6216;BME280;3141;49.234;9.326;2023-01-29T00:51:00;100866.00;;;4.10;56.49
6216;BME280;3141;49.234;9.326;2023-01-29T00:51:43;100853.91;;;4.08;56.53
6216;BME280;3141;49.234;9.326;2023-01-29T00:52:25;100857.28;;;4.10;56.10
6216;BME280;3141;49.234;9.326;2023-01-29T00:53:08;100860.00;;;4.08;55.90
6216;BME280;3141;49.234;9.326;2023-01-29T00:53:50;100861.09;;;4.04;55.22
6216;BME280;3141;49.234;9.326;2023-01-29T00:54:32;100858.28;;;4.07;55.58
6216;BME280;3141;49.234;9.326;2023-01-29T00:55:15;100863.81;;;4.03;55.65
6216;BME280;3141;49.234;9.326;2023-01-29T00:55:57;100866.31;;;4.04;55.66
6216;BME280;3141;49.234;9.326;2023-01-29T00:56:40;100866.91;;;4.09;56.10
6216;BME280;3141;49.234;9.326;2023-01-29T00:57:24;100863.38;;;4.10;56.00
6216;BME280;3141;49.234;9.326;2023-01-29T00:58:07;100853.06;;;4.07;55.77
6216;BME280;3141;49.234;9.326;2023-01-29T00:58:50;100853.25;;;4.04;56.42
6216;BME280;3141;49.234;9.326;2023-01-29T00:59:32;100860.50;;;3.99;56.13
6216;BME280;3141;49.234;9.326;2023-01-29T01:00:16;100854.28;;;4.02;56.31
6216;BME280;3141;49.234;9.326;2023-01-29T01:01:00;100857.47;;;4.07;56.49
6216;BME280;3141;49.234;9.326;2023-01-29T01:01:43;100855.78;;;4.06;56.03
6216;BME280;3141;49.234;9.326;2023-01-29T01:02:44;100853.91;;;4.08;56.42
6216;BME280;3141;49.234;9.326;2023-01-29T01:03:45;100851.06;;;4.12;55.69
6216;BME280;3141;49.234;9.326;2023-01-29T01:04:27;100851.41;;;4.06;56.02
6216;BME280;3141;49.234;9.326;2023-01-29T01:05:11;100847.00;;;4.07;55.79
6216;BME280;3141;49.234;9.326;2023-01-29T01:06:04;100850.41;;;3.93;55.62
6216;BME280;3141;49.234;9.326;2023-01-29T01:06:46;100853.03;;;3.93;56.16
6216;BME280;3141;49.234;9.326;2023-01-29T01:07:29;100847.59;;;3.96;55.62
6216;BME280;3141;49.234;9.326;2023-01-29T01:08:12;100848.38;;;3.98;56.17
6216;BME280;3141;49.234;9.326;2023-01-29T01:09:13;100856.63;;;4.06;55.78
6216;BME280;3141;49.234;9.326;2023-01-29T01:10:24;100854.94;;;4.05;54.81
6216;BME280;3141;49.234;9.326;2023-01-29T01:11:06;100852.25;;;4.07;55.29
6216;BME280;3141;49.234;9.326;2023-01-29T01:11:49;100857.78;;;4.16;55.07
6216;BME280;3141;49.234;9.326;2023-01-29T01:12:32;100862.53;;;4.10;55.60
6216;BME280;3141;49.234;9.326;2023-01-29T01:13:15;100856.72;;;4.05;55.95
6216;BME280;3141;49.234;9.326;2023-01-29T01:13:57;100853.16;;;3.90;56.91
6216;BME280;3141;49.234;9.326;2023-01-29T01:14:43;100856.31;;;3.97;56.97
6216;BME280;3141;49.234;9.326;2023-01-29T01:15:30;100850.56;;;3.90;57.47
6216;BME280;3141;49.234;9.326;2023-01-29T01:16:15;100854.97;;;3.90;57.40
6216;BME280;3141;49.234;9.326;2023-01-29T01:16:57;100855.97;;;3.87;57.86
6216;BME280;3141;49.234;9.326;2023-01-29T01:17:40;100862.28;;;3.83;58.34
6216;BME280;3141;49.234;9.326;2023-01-29T01:18:22;100851.22;;;3.78;58.82
6216;BME280;3141;49.234;9.326;2023-01-29T01:19:04;100851.22;;;3.78;58.65
6216;BME280;3141;49.234;9.326;2023-01-29T01:19:47;100855.47;;;3.81;58.84
6216;BME280;3141;49.234;9.326;2023-01-29T01:20:32;100856.06;;;3.86;58.84
6216;BME280;3141;49.234;9.326;2023-01-29T01:21:15;100856.47;;;3.78;58.56
6216;BME280;3141;49.234;9.326;2023-01-29T01:21:57;100853.13;;;3.76;58.81
6216;BME280;3141;49.234;9.326;2023-01-29T01:22:39;100856.22;;;3.83;59.03
6216;BME280;3141;49.234;9.326;2023-01-29T01:23:22;100856.81;;;3.72;58.06
6216;BME280;3141;49.234;9.326;2023-01-29T01:24:04;100860.00;;;3.77;58.05
6216;BME280;3141;49.234;9.326;2023-01-29T01:24:47;100855.97;;;3.72;58.17
6216;BME280;3141;49.234;9.326;2023-01-29T01:25:29;100859.16;;;3.77;58.56
6216;BME280;3141;49.234;9.326;2023-01-29T01:26:12;100858.94;;;3.81;58.29
6216;BME280;3141;49.234;9.326;2023-01-29T01:26:54;100851.09;;;3.81;58.36
6216;BME280;3141;49.234;9.326;2023-01-29T01:27:36;100859.44;;;3.88;57.83
6216;BME280;3141;49.234;9.326;2023-01-29T01:28:22;100858.84;;;3.83;57.90
6216;BME280;3141;49.234;9.326;2023-01-29T01:29:04;100855.28;;;3.68;58.32
6216;BME280;3141;49.234;9.326;2023-01-29T01:29:47;100851.75;;;3.69;57.85
6216;BME280;3141;49.234;9.326;2023-01-29T01:30:29;100854.03;;;3.75;57.42
6216;BME280;3141;49.234;9.326;2023-01-29T01:31:12;100850.56;;;3.75;58.04
6216;BME280;3141;49.234;9.326;2023-01-29T01:31:55;100854.38;;;3.69;57.29
6216;BME280;3141;49.234;9.326;2023-01-29T01:32:37;100853.25;;;3.73;57.83
6216;BME280;3141;49.234;9.326;2023-01-29T01:33:20;100853.25;;;3.73;58.22
6216;BME280;3141;49.234;9.326;2023-01-29T01:34:02;100848.78;;;3.75;57.62
6216;BME280;3141;49.234;9.326;2023-01-29T01:34:45;100855.38;;;3.82;58.17
6216;BME280;3141;49.234;9.326;2023-01-29T01:35:27;100854.69;;;3.79;57.76
6216;BME280;3141;49.234;9.326;2023-01-29T01:36:09;100848.78;;;3.75;58.32
6216;BME280;3141;49.234;9.326;2023-01-29T01:36:53;100853.69;;;3.81;57.90
6216;BME280;3141;49.234;9.326;2023-01-29T01:37:37;100854.97;;;3.74;58.32
6216;BME280;3141;49.234;9.326;2023-01-29T01:38:19;100853.13;;;3.76;58.36
6216;BME280;3141;49.234;9.326;2023-01-29T01:39:02;100854.19;;;3.72;58.50
6216;BME280;3141;49.234;9.326;2023-01-29T01:39:44;100854.28;;;3.71;59.03
6216;BME280;3141;49.234;9.326;2023-01-29T01:40:30;100847.03;;;3.76;59.05
6216;BME280;3141;49.234;9.326;2023-01-29T01:41:18;100856.47;;;3.78;58.50
6216;BME280;3141;49.234;9.326;2023-01-29T01:42:01;100856.81;;;3.72;58.91
6216;BME280;3141;49.234;9.326;2023-01-29T01:42:46;100851.16;;;3.64;58.98
6216;BME280;3141;49.234;9.326;2023-01-29T01:43:52;100850.53;;;3.59;59.31
6216;BME280;3141;49.234;9.326;2023-01-29T01:45:01;100852.75;;;3.51;59.72
6216;BME280;3141;49.234;9.326;2023-01-29T01:45:45;100861.44;;;3.51;59.84
6216;BME280;3141;49.234;9.326;2023-01-29T01:46:35;100854.00;;;3.44;60.33
6216;BME280;3141;49.234;9.326;2023-01-29T01:47:26;100846.66;;;3.50;60.14
6216;BME280;3141;49.234;9.326;2023-01-29T01:48:23;100848.69;;;3.61;60.00
6216;BME280;3141;49.234;9.326;2023-01-29T01:49:15;100841.78;;;3.60;60.50
6216;BME280;3141;49.234;9.326;2023-01-29T01:50:04;100854.00;;;3.60;59.74
6216;BME280;3141;49.234;9.326;2023-01-29T01:50:52;100851.91;;;3.66;59.89
6216;BME280;3141;49.234;9.326;2023-01-29T01:51:39;100852.94;;;3.64;60.46
6216;BME280;3141;49.234;9.326;2023-01-29T01:52:24;100847.34;;;3.70;59.66
6216;BME280;3141;49.234;9.326;2023-01-29T01:53:09;100850.41;;;3.62;59.61
6216;BME280;3141;49.234;9.326;2023-01-29T01:53:57;100851.66;;;3.55;59.88
6216;BME280;3141;49.234;9.326;2023-01-29T01:54:43;100852.56;;;3.54;60.22
6216;BME280;3141;49.234;9.326;2023-01-29T01:55:27;100854.00;;;3.60;59.81
6216;BME280;3141;49.234;9.326;2023-01-29T01:56:18;100851.91;;;3.66;59.46
6216;BME280;3141;49.234;9.326;2023-01-29T01:57:06;100852.50;;;3.71;59.39
6216;BME280;3141;49.234;9.326;2023-01-29T01:57:55;100850.50;;;3.76;58.82
6216;BME280;3141;49.234;9.326;2023-01-29T01:58:50;100847.22;;;3.73;59.08
6216;BME280;3141;49.234;9.326;2023-01-29T01:59:37;100844.06;;;3.66;59.81
6216;BME280;3141;49.234;9.326;2023-01-29T02:00:22;100846.75;;;3.65;60.47
6216;BME280;3141;49.234;9.326;2023-01-29T02:01:07;100839.59;;;3.68;60.27
6216;BME280;3141;49.234;9.326;2023-01-29T02:01:52;100842.38;;;3.65;60.33
6216;BME280;3141;49.234;9.326;2023-01-29T02:02:37;100838.31;;;3.60;60.65
6216;BME280;3141;49.234;9.326;2023-01-29T02:03:47;100843.16;;;3.67;60.20
6216;BME280;3141;49.234;9.326;2023-01-29T02:04:50;100848.47;;;3.66;60.25
6216;BME280;3141;49.234;9.326;2023-01-29T02:05:52;100844.72;;;3.54;60.19
6216;BME280;3141;49.234;9.326;2023-01-29T02:06:55;100857.13;;;3.50;60.54
6216;BME280;3141;49.234;9.326;2023-01-29T02:07:58;100859.66;;;3.52;60.48
6216;BME280;3141;49.234;9.326;2023-01-29T02:09:04;100856.53;;;3.61;60.85
6216;BME280;3141;49.234;9.326;2023-01-29T02:10:10;100847.03;;;3.60;60.88
6216;BME280;3141;49.234;9.326;2023-01-29T02:10:54;100851.47;;;3.58;61.02
6216;BME280;3141;49.234;9.326;2023-01-29T02:11:36;100849.47;;;3.63;60.69
6216;BME280;3141;49.234;9.326;2023-01-29T02:12:20;100852.06;;;3.63;61.03
6216;BME280;3141;49.234;9.326;2023-01-29T02:13:04;100852.06;;;3.63;60.93
6216;BME280;3141;49.234;9.326;2023-01-29T02:13:47;100850.03;;;3.52;61.24
6216;BME280;3141;49.234;9.326;2023-01-29T02:14:36;100852.56;;;3.54;60.96
6216;BME280;3141;49.234;9.326;2023-01-29T02:15:21;100849.94;;;3.54;61.18
6216;BME280;3141;49.234;9.326;2023-01-29T02:16:04;100856.88;;;3.55;61.16
6216;BME280;3141;49.234;9.326;2023-01-29T02:16:46;100850.97;;;3.51;61.02
6216;BME280;3141;49.234;9.326;2023-01-29T02:17:29;100850.91;;;3.53;61.48
6216;BME280;3141;49.234;9.326;2023-01-29T02:18:14;100849.19;;;3.52;61.38
6216;BME280;3141;49.234;9.326;2023-01-29T02:18:57;100853.25;;;3.58;61.14
6216;BME280;3141;49.234;9.326;2023-01-29T02:20:02;100849.72;;;3.59;61.58
6216;BME280;3141;49.234;9.326;2023-01-29T02:21:56;100852.44;;;3.57;60.68
6216;BME280;3141;49.234;9.326;2023-01-29T02:24:10;100852.06;;;3.63;60.27
6216;BME280;3141;49.234;9.326;2023-01-29T02:26:49;100848.44;;;3.50;60.64
6216;BME280;3141;49.234;9.326;2023-01-29T02:27:14;100849.94;;;3.54;60.48
6216;BME280;3141;49.234;9.326;2023-01-29T02:28:11;100854.78;;;3.62;60.35
6216;BME280;3141;49.234;9.326;2023-01-29T02:30:36;100849.81;;;3.73;59.96
6216;BME280;3141;49.234;9.326;2023-01-29T02:31:28;100843.31;;;3.64;59.38
6216;BME280;3141;49.234;9.326;2023-01-29T02:32:24;100848.19;;;3.70;58.72
6216;BME280;3141;49.234;9.326;2023-01-29T02:33:13;100845.84;;;3.66;58.37
6216;BME280;3141;49.234;9.326;2023-01-29T02:34:19;100845.09;;;3.64;58.38
6216;BME280;3141;49.234;9.326;2023-01-29T02:35:27;100848.38;;;3.67;58.04
6216;BME280;3141;49.234;9.326;2023-01-29T02:36:43;100844.75;;;3.70;58.39
6216;BME280;3141;49.234;9.326;2023-01-29T02:37:32;100848.88;;;3.58;59.67
6216;BME280;3141;49.234;9.326;2023-01-29T02:38:48;100846.34;;;3.57;59.53
6216;BME280;3141;49.234;9.326;2023-01-29T02:39:37;100843.97;;;3.52;59.02
6216;BME280;3141;49.234;9.326;2023-01-29T02:41:45;100864.72;;;3.55;57.77
6216;BME280;3141;49.234;9.326;2023-01-29T02:42:34;100848.03;;;3.58;57.37
6216;BME280;3141;49.234;9.326;2023-01-29T02:44:27;100847.34;;;3.54;58.06
6216;BME280;3141;49.234;9.326;2023-01-29T02:45:21;100853.25;;;3.58;57.72
6216;BME280;3141;49.234;9.326;2023-01-29T02:48:02;100843.66;;;3.58;58.24
6216;BME280;3141;49.234;9.326;2023-01-29T02:48:55;100847.69;;;3.64;58.35
6216;BME280;3141;49.234;9.326;2023-01-29T02:50:02;100843.31;;;3.64;58.84
6216;BME280;3141;49.234;9.326;2023-01-29T02:50:56;100842.69;;;3.59;58.95
6216;BME280;3141;49.234;9.326;2023-01-29T02:51:47;100837.75;;;3.54;59.35
6216;BME280;3141;49.234;9.326;2023-01-29T02:52:59;100840.84;;;3.61;59.10
6216;BME280;3141;49.234;9.326;2023-01-29T02:54:53;100840.19;;;3.58;59.48
6216;BME280;3141;49.234;9.326;2023-01-29T02:55:43;100844.91;;;3.67;59.32
6216;BME280;3141;49.234;9.326;2023-01-29T02:56:43;100842.97;;;3.54;59.57
6216;BME280;3141;49.234;9.326;2023-01-29T02:57:34;100838.09;;;3.64;59.50
6216;BME280;3141;49.234;9.326;2023-01-29T02:58:28;100841.13;;;3.57;58.97
6216;BME280;3141;49.234;9.326;2023-01-29T02:59:17;100837.25;;;3.64;58.45
6216;BME280;3141;49.234;9.326;2023-01-29T03:00:06;100833.00;;;3.61;59.57
6216;BME280;3141;49.234;9.326;2023-01-29T03:00:52;100842.69;;;3.59;59.11
6216;BME280;3141;49.234;9.326;2023-01-29T03:01:48;100832.69;;;3.67;59.28
6216;BME280;3141;49.234;9.326;2023-01-29T03:02:46;100840.28;;;3.72;58.79
6216;BME280;3141;49.234;9.326;2023-01-29T03:03:41;100834.28;;;3.70;59.16
6216;BME280;3141;49.234;9.326;2023-01-29T03:04:31;100842.13;;;3.70;59.46
6216;BME280;3141;49.234;9.326;2023-01-29T03:05:20;100832.25;;;3.75;58.63
6216;BME280;3141;49.234;9.326;2023-01-29T03:06:06;100844.31;;;3.77;58.69
6216;BME280;3141;49.234;9.326;2023-01-29T03:07:05;100840.63;;;3.81;58.99
6216;BME280;3141;49.234;9.326;2023-01-29T03:07:55;100843.47;;;3.77;59.31
6216;BME280;3141;49.234;9.326;2023-01-29T03:08:42;100845.19;;;3.78;58.96
6216;BME280;3141;49.234;9.326;2023-01-29T03:09:33;100841.44;;;3.82;58.77
6216;BME280;3141;49.234;9.326;2023-01-29T03:10:22;100843.25;;;3.81;58.98
6216;BME280;3141;49.234;9.326;2023-01-29T03:11:06;100835.88;;;3.72;58.45
6216;BME280;3141;49.234;9.326;2023-01-29T03:11:51;100837.91;;;3.67;58.40
6216;BME280;3141;49.234;9.326;2023-01-29T03:12:37;100837.25;;;3.64;58.44
6216;BME280;3141;49.234;9.326;2023-01-29T03:13:29;100840.53;;;3.67;58.60
6216;BME280;3141;49.234;9.326;2023-01-29T03:14:18;100836.88;;;3.70;59.07
6216;BME280;3141;49.234;9.326;2023-01-29T03:15:09;100837.75;;;3.70;58.95
6216;BME280;3141;49.234;9.326;2023-01-29T03:15:58;100836.66;;;3.74;58.58
6216;BME280;3141;49.234;9.326;2023-01-29T03:16:50;100838.25;;;3.77;58.64
6216;BME280;3141;49.234;9.326;2023-01-29T03:17:39;100840.78;;;3.78;59.24
6216;BME280;3141;49.234;9.326;2023-01-29T03:18:24;100838.25;;;3.77;59.19
6216;BME280;3141;49.234;9.326;2023-01-29T03:19:15;100842.66;;;3.76;58.86
6216;BME280;3141;49.234;9.326;2023-01-29T03:20:03;100845.31;;;3.75;58.90
6216;BME280;3141;49.234;9.326;2023-01-29T03:20:51;100840.94;;;3.75;58.78
6216;BME280;3141;49.234;9.326;2023-01-29T03:21:40;100843.47;;;3.77;59.00
6216;BME280;3141;49.234;9.326;2023-01-29T03:22:43;100840.09;;;3.75;59.64
6216;BME280;3141;49.234;9.326;2023-01-29T03:23:29;100836.88;;;3.70;59.21
6216;BME280;3141;49.234;9.326;2023-01-29T03:24:35;100830.97;;;3.66;59.04
6216;BME280;3141;49.234;9.326;2023-01-29T03:25:37;100833.19;;;3.58;58.75
6216;BME280;3141;49.234;9.326;2023-01-29T03:26:42;100835.47;;;3.64;58.90
6216;BME280;3141;49.234;9.326;2023-01-29T03:27:47;100825.66;;;3.68;58.37
6216;BME280;3141;49.234;9.326;2023-01-29T03:28:50;100828.97;;;3.71;58.52
6216;BME280;3141;49.234;9.326;2023-01-29T03:29:53;100822.91;;;3.71;59.08
6216;BME280;3141;49.234;9.326;2023-01-29T03:30:59;100830.84;;;3.69;59.14
6216;BME280;3141;49.234;9.326;2023-01-29T03:32:01;100826.53;;;3.68;59.46
6216;BME280;3141;49.234;9.326;2023-01-29T03:32:50;100822.41;;;3.64;59.98
6216;BME280;3141;49.234;9.326;2023-01-29T03:33:39;100833.00;;;3.61;59.60
6216;BME280;3141;49.234;9.326;2023-01-29T03:34:26;100830.84;;;3.53;59.83
6216;BME280;3141;49.234;9.326;2023-01-29T03:35:20;100829.31;;;3.49;60.01
6216;BME280;3141;49.234;9.326;2023-01-29T03:36:22;100832.09;;;3.46;59.81
6216;BME280;3141;49.234;9.326;2023-01-29T03:37:28;100827.84;;;3.44;60.30
6216;BME280;3141;49.234;9.326;2023-01-29T03:38:15;100829.69;;;3.42;60.70
6216;BME280;3141;49.234;9.326;2023-01-29T03:38:58;100836.72;;;3.41;60.85
6216;BME280;3141;49.234;9.326;2023-01-29T03:39:40;100823.47;;;3.44;60.56
6216;BME280;3141;49.234;9.326;2023-01-29T03:40:23;100838.31;;;3.44;60.08
6216;BME280;3141;49.234;9.326;2023-01-29T03:41:07;100828.63;;;3.46;60.53
6216;BME280;3141;49.234;9.326;2023-01-29T03:41:58;100829.63;;;3.43;60.34
6216;BME280;3141;49.234;9.326;2023-01-29T03:42:55;100837.41;;;3.45;60.58
6216;BME280;3141;49.234;9.326;2023-01-29T03:43:55;100822.97;;;3.38;60.80
6216;BME280;3141;49.234;9.326;2023-01-29T03:45:53;100842.00;;;3.40;60.61
6216;BME280;3141;49.234;9.326;2023-01-29T03:46:49;100834.03;;;3.43;60.55
6216;BME280;3141;49.234;9.326;2023-01-29T03:48:34;100837.13;;;3.34;60.99
6216;BME280;3141;49.234;9.326;2023-01-29T03:49:28;100842.34;;;3.34;60.64
6216;BME280;3141;49.234;9.326;2023-01-29T03:51:46;100842.25;;;3.35;61.20
6216;BME280;3141;49.234;9.326;2023-01-29T03:52:44;100847.16;;;3.26;60.72
6216;BME280;3141;49.234;9.326;2023-01-29T03:54:22;100844.69;;;3.23;61.62
6216;BME280;3141;49.234;9.326;2023-01-29T03:55:16;100842.66;;;3.28;60.97
6216;BME280;3141;49.234;9.326;2023-01-29T03:56:12;100845.13;;;3.31;61.61
6216;BME280;3141;49.234;9.326;2023-01-29T03:57:36;100850.97;;;3.36;60.20
6216;BME280;3141;49.234;9.326;2023-01-29T03:59:32;100856.84;;;3.24;60.44
6216;BME280;3141;49.234;9.326;2023-01-29T04:00:33;100850.84;;;3.22;60.92
6216;BME280;3141;49.234;9.326;2023-01-29T04:01:29;100849.91;;;3.23;60.72
6216;BME280;3141;49.234;9.326;2023-01-29T04:02:18;100852.38;;;3.26;60.42
6216;BME280;3141;49.234;9.326;2023-01-29T04:03:20;100856.28;;;3.34;60.54
6216;BME280;3141;49.234;9.326;2023-01-29T04:04:26;100862.78;;;3.43;60.43
6216;BME280;3141;49.234;9.326;2023-01-29T04:05:16;100859.31;;;3.42;60.63
6216;BME280;3141;49.234;9.326;2023-01-29T04:06:08;100866.22;;;3.43;60.43
6216;BME280;3141;49.234;9.326;2023-01-29T04:06:54;100868.09;;;3.41;60.61
6216;BME280;3141;49.234;9.326;2023-01-29T04:07:40;100862.09;;;3.39;60.80
6216;BME280;3141;49.234;9.326;2023-01-29T04:08:27;100868.81;;;3.43;60.41
6216;BME280;3141;49.234;9.326;2023-01-29T04:09:24;100869.38;;;3.50;60.37
6216;BME280;3141;49.234;9.326;2023-01-29T04:10:13;100862.25;;;3.52;60.23
6216;BME280;3141;49.234;9.326;2023-01-29T04:10:59;100856.03;;;3.54;60.05
6216;BME280;3141;49.234;9.326;2023-01-29T04:11:48;100856.81;;;3.57;60.24
6216;BME280;3141;49.234;9.326;2023-01-29T04:12:37;100850.72;;;3.56;59.96
6216;BME280;3141;49.234;9.326;2023-01-29T04:13:23;100856.88;;;3.55;59.76
6216;BME280;3141;49.234;9.326;2023-01-29T04:14:06;100854.94;;;3.59;59.62
6216;BME280;3141;49.234;9.326;2023-01-29T04:14:52;100851.31;;;3.61;58.79
6216;BME280;3141;49.234;9.326;2023-01-29T04:15:43;100849.72;;;3.59;58.66
6216;BME280;3141;49.234;9.326;2023-01-29T04:16:34;100855.78;;;3.59;58.82
6216;BME280;3141;49.234;9.326;2023-01-29T04:17:22;100857.41;;;3.62;58.54
6216;BME280;3141;49.234;9.326;2023-01-29T04:18:07;100861.00;;;3.59;58.91
6216;BME280;3141;49.234;9.326;2023-01-29T04:18:49;100855.72;;;3.61;58.71
6216;BME280;3141;49.234;9.326;2023-01-29T04:19:32;100860.19;;;3.59;58.63
6216;BME280;3141;49.234;9.326;2023-01-29T04:20:15;100860.19;;;3.59;58.66
6216;BME280;3141;49.234;9.326;2023-01-29T04:20:58;100861.84;;;3.60;58.63
6216;BME280;3141;49.234;9.326;2023-01-29T04:21:41;100861.94;;;3.58;59.04
6216;BME280;3141;49.234;9.326;2023-01-29T04:22:32;100864.56;;;3.58;59.16
6216;BME280;3141;49.234;9.326;2023-01-29T04:23:23;100857.13;;;3.50;59.04
6216;BME280;3141;49.234;9.326;2023-01-29T04:24:06;100863.03;;;3.54;59.13
6216;BME280;3141;49.234;9.326;2023-01-29T04:24:50;100858.38;;;3.59;58.76
6216;BME280;3141;49.234;9.326;2023-01-29T04:25:42;100862.78;;;3.59;58.37
6216;BME280;3141;49.234;9.326;2023-01-29T04:27:28;100854.88;;;3.60;58.50
6216;BME280;3141;49.234;9.326;2023-01-29T04:28:21;100859.16;;;3.61;58.10
6216;BME280;3141;49.234;9.326;2023-01-29T04:29:21;100854.88;;;3.60;58.08
6216;BME280;3141;49.234;9.326;2023-01-29T04:30:14;100861.78;;;3.61;58.67
6216;BME280;3141;49.234;9.326;2023-01-29T04:31:05;100859.06;;;3.63;58.35
6216;BME280;3141;49.234;9.326;2023-01-29T04:33:10;100859.16;;;3.61;58.33
6216;BME280;3141;49.234;9.326;2023-01-29T04:34:59;100865.06;;;3.65;57.32
6216;BME280;3141;49.234;9.326;2023-01-29T04:37:39;100863.38;;;3.64;58.17
6216;BME280;3141;49.234;9.326;2023-01-29T04:39:17;100859.16;;;3.61;58.06
6216;BME280;3141;49.234;9.326;2023-01-29T04:39:57;100858.47;;;3.58;57.50
6216;BME280;3141;49.234;9.326;2023-01-29T04:40:50;100866.09;;;3.62;57.93
6216;BME280;3141;49.234;9.326;2023-01-29T04:41:54;100863.38;;;3.64;57.42
6216;BME280;3141;49.234;9.326;2023-01-29T04:43:00;100860.00;;;3.62;57.05
6216;BME280;3141;49.234;9.326;2023-01-29T04:45:00;100856.59;;;3.28;58.00
6216;BME280;3141;49.234;9.326;2023-01-29T04:46:59;100857.25;;;3.32;57.75
6216;BME280;3141;49.234;9.326;2023-01-29T04:48:07;100857.53;;;3.43;58.15
6216;BME280;3141;49.234;9.326;2023-01-29T04:50:58;100863.28;;;3.49;58.82
6216;BME280;3141;49.234;9.326;2023-01-29T04:51:59;100867.75;;;3.47;58.57
6216;BME280;3141;49.234;9.326;2023-01-29T04:53:55;100863.38;;;3.48;58.30